sensor_id;sensor_type;location;lat;lon;timestamp;pressure;altitude;pressure_sealevel;temperature;humidity
62980;BME280;49075;53.988;27.678;2023-05-23T00:01:46;988.8;;;12.8;51.3
62980;BME280;49075;53.988;27.678;2023-05-23T00:06:42;988.8;;;12.8;51.7
62980;BME280;49075;53.988;27.678;2023-05-23T00:11:38;988.8;;;12.7;51.5
62980;BME280;49075;53.988;27.678;2023-05-23T00:16:42;988.8;;;12.6;52.1
62980;BME280;49075;53.988;27.678;2023-05-23T00:21:32;988.8;;;12.6;52
62980;BME280;49075;53.988;27.678;2023-05-23T00:26:32;988.8;;;12.5;52.3
62980;BME280;49075;53.988;27.678;2023-05-23T00:31:56;988.8;;;12.5;52.3
62980;BME280;49075;53.988;27.678;2023-05-23T00:36:56;988.8;;;12.4;52.8
62980;BME280;49075;53.988;27.678;2023-05-23T00:41:32;988.8;;;12.3;53
62980;BME280;49075;53.988;27.678;2023-05-23T00:46:53;988.8;;;12.3;53.5
62980;BME280;49075;53.988;27.678;2023-05-23T00:51:32;988.8;;;12.2;53.5
62980;BME280;49075;53.988;27.678;2023-05-23T00:56:32;988.8;;;12.2;54
62980;BME280;49075;53.988;27.678;2023-05-23T01:01:32;988.8;;;12.1;53.7
62980;BME280;49075;53.988;27.678;2023-05-23T01:06:32;988.8;;;12.1;54.2
62980;BME280;49075;53.988;27.678;2023-05-23T01:11:42;988.8;;;12;54.1
62980;BME280;49075;53.988;27.678;2023-05-23T01:16:47;988.8;;;11.9;54.3
62980;BME280;49075;53.988;27.678;2023-05-23T01:21:32;988.8;;;11.8;54.4
62980;BME280;49075;53.988;27.678;2023-05-23T01:26:32;988.7;;;11.8;54.7
62980;BME280;49075;53.988;27.678;2023-05-23T01:31:42;988.7;;;11.7;54.7
62980;BME280;49075;53.988;27.678;2023-05-23T01:36:32;988.7;;;11.7;54.8
62980;BME280;49075;53.988;27.678;2023-05-23T01:41:56;988.7;;;11.7;54.8
62980;BME280;49075;53.988;27.678;2023-05-23T01:46:52;988.7;;;11.6;55
62980;BME280;49075;53.988;27.678;2023-05-23T01:51:38;988.7;;;11.5;55.1
62980;BME280;49075;53.988;27.678;2023-05-23T01:56:32;988.7;;;11.5;55.2
62980;BME280;49075;53.988;27.678;2023-05-23T02:01:54;988.7;;;11.5;55.4
62980;BME280;49075;53.988;27.678;2023-05-23T02:06:30;988.7;;;11.4;55.4
62980;BME280;49075;53.988;27.678;2023-05-23T02:11:32;988.7;;;11.3;55.8
62980;BME280;49075;53.988;27.678;2023-05-23T02:16:52;988.7;;;11.3;55.5
62980;BME280;49075;53.988;27.678;2023-05-23T02:21:30;988.7;;;11.3;55.8
62980;BME280;49075;53.988;27.678;2023-05-23T02:26:44;988.7;;;11.3;55.6
62980;BME280;49075;53.988;27.678;2023-05-23T02:31:56;988.7;;;11.3;56.1
62980;BME280;49075;53.988;27.678;2023-05-23T02:37:20;988.7;;;11.3;55.9
62980;BME280;49075;53.988;27.678;2023-05-23T02:41:50;988.7;;;11.4;56.2
62980;BME280;49075;53.988;27.678;2023-05-23T02:46:42;988.6;;;11.4;55.9
62980;BME280;49075;53.988;27.678;2023-05-23T02:51:32;988.6;;;11.6;55.8
62980;BME280;49075;53.988;27.678;2023-05-23T02:56:54;988.6;;;11.7;55.3
62980;BME280;49075;53.988;27.678;2023-05-23T03:01:32;988.6;;;11.8;55.4
62980;BME280;49075;53.988;27.678;2023-05-23T03:06:46;988.6;;;11.8;55.3
62980;BME280;49075;53.988;27.678;2023-05-23T03:11:32;988.6;;;11.9;55.7
62980;BME280;49075;53.988;27.678;2023-05-23T03:16:32;988.6;;;12.1;55.1
62980;BME280;49075;53.988;27.678;2023-05-23T03:21:30;988.6;;;12.4;54.6
62980;BME280;49075;53.988;27.678;2023-05-23T03:26:48;988.6;;;12.6;54.3
62980;BME280;49075;53.988;27.678;2023-05-23T03:31:48;988.5;;;12.8;54
62980;BME280;49075;53.988;27.678;2023-05-23T03:36:40;988.5;;;12.9;54.1
62980;BME280;49075;53.988;27.678;2023-05-23T03:41:46;988.5;;;13.1;53.9
62980;BME280;49075;53.988;27.678;2023-05-23T03:46:38;988.5;;;13.2;53.8
62980;BME280;49075;53.988;27.678;2023-05-23T03:51:30;988.5;;;13.3;53.5
62980;BME280;49075;53.988;27.678;2023-05-23T03:56:50;988.5;;;13.6;53.3
62980;BME280;49075;53.988;27.678;2023-05-23T04:01:48;988.5;;;13.9;52.8
62980;BME280;49075;53.988;27.678;2023-05-23T04:06:30;988.5;;;14.1;52.5
62980;BME280;49075;53.988;27.678;2023-05-23T04:11:44;988.5;;;14.2;52.3
62980;BME280;49075;53.988;27.678;2023-05-23T04:16:30;988.5;;;14.3;52.3
62980;BME280;49075;53.988;27.678;2023-05-23T04:21:36;988.5;;;14.5;51.9
62980;BME280;49075;53.988;27.678;2023-05-23T04:26:40;988.4;;;14.8;51.4
62980;BME280;49075;53.988;27.678;2023-05-23T04:31:40;988.4;;;14.8;51
62980;BME280;49075;53.988;27.678;2023-05-23T04:36:36;988.3;;;14.8;50.7
62980;BME280;49075;53.988;27.678;2023-05-23T04:41:32;988.3;;;14.8;50.5
62980;BME280;49075;53.988;27.678;2023-05-23T04:46:46;988.3;;;14.9;50.5
62980;BME280;49075;53.988;27.678;2023-05-23T04:51:32;988.3;;;15;50.7
62980;BME280;49075;53.988;27.678;2023-05-23T04:56:42;988.4;;;15.2;50.7
62980;BME280;49075;53.988;27.678;2023-05-23T05:01:32;988.4;;;15.7;49.7
62980;BME280;49075;53.988;27.678;2023-05-23T05:06:44;988.4;;;16;48.9
62980;BME280;49075;53.988;27.678;2023-05-23T05:11:32;988.4;;;16.4;48
62980;BME280;49075;53.988;27.678;2023-05-23T05:16:32;988.4;;;16.5;47.6
62980;BME280;49075;53.988;27.678;2023-05-23T05:21:44;988.3;;;16.7;47
62980;BME280;49075;53.988;27.678;2023-05-23T05:26:38;988.3;;;17.1;46.3
62980;BME280;49075;53.988;27.678;2023-05-23T05:31:32;988.3;;;17.5;45.9
62980;BME280;49075;53.988;27.678;2023-05-23T05:36:32;988.3;;;17.8;45
62980;BME280;49075;53.988;27.678;2023-05-23T05:41:44;988.3;;;18;43.9
62980;BME280;49075;53.988;27.678;2023-05-23T05:46:42;988.3;;;17.8;43.5
62980;BME280;49075;53.988;27.678;2023-05-23T05:51:52;988.3;;;18.1;43.4
62980;BME280;49075;53.988;27.678;2023-05-23T05:56:50;988.2;;;18.4;42.5
62980;BME280;49075;53.988;27.678;2023-05-23T06:01:32;988.2;;;18.6;41.9
62980;BME280;49075;53.988;27.678;2023-05-23T06:07:00;988.2;;;18.7;40.8
62980;BME280;49075;53.988;27.678;2023-05-23T06:11:44;988.1;;;18.8;41.2
62980;BME280;49075;53.988;27.678;2023-05-23T06:17:02;988.1;;;19;40.5
62980;BME280;49075;53.988;27.678;2023-05-23T06:21:56;988.1;;;19.7;39.1
62980;BME280;49075;53.988;27.678;2023-05-23T06:26:46;988.1;;;19.9;37.9
62980;BME280;49075;53.988;27.678;2023-05-23T06:31:50;988.2;;;20.1;38.1
62980;BME280;49075;53.988;27.678;2023-05-23T06:36:56;988.1;;;21.1;36.6
62980;BME280;49075;53.988;27.678;2023-05-23T06:41:56;988;;;21.8;35.5
62980;BME280;49075;53.988;27.678;2023-05-23T06:46:32;988;;;22.5;34
62980;BME280;49075;53.988;27.678;2023-05-23T06:51:32;988;;;23.9;32.8
62980;BME280;49075;53.988;27.678;2023-05-23T06:56:32;987.9;;;24.9;30.8
62980;BME280;49075;53.988;27.678;2023-05-23T07:01:42;987.9;;;25.5;30.2
62980;BME280;49075;53.988;27.678;2023-05-23T07:06:48;988;;;26.3;28.6
62980;BME280;49075;53.988;27.678;2023-05-23T07:11:42;988;;;25.8;29.1
62980;BME280;49075;53.988;27.678;2023-05-23T07:16:42;987.9;;;26.2;28.3
62980;BME280;49075;53.988;27.678;2023-05-23T07:21:52;987.9;;;26.4;28.1
62980;BME280;49075;53.988;27.678;2023-05-23T07:26:42;987.8;;;26.8;27
62980;BME280;49075;53.988;27.678;2023-05-23T07:31:42;987.8;;;27.4;26.2
62980;BME280;49075;53.988;27.678;2023-05-23T07:36:50;987.8;;;27.8;25.2
62980;BME280;49075;53.988;27.678;2023-05-23T07:41:42;987.7;;;29;24.5
62980;BME280;49075;53.988;27.678;2023-05-23T07:46:46;987.7;;;29.5;22.6
62980;BME280;49075;53.988;27.678;2023-05-23T07:51:44;987.7;;;29.5;22.7
62980;BME280;49075;53.988;27.678;2023-05-23T07:56:46;987.7;;;29.7;20.8
62980;BME280;49075;53.988;27.678;2023-05-23T08:01:32;987.7;;;30;21.1
62980;BME280;49075;53.988;27.678;2023-05-23T08:06:54;987.6;;;28.6;21.8
62980;BME280;49075;53.988;27.678;2023-05-23T08:11:44;987.6;;;28.1;22.8
62980;BME280;49075;53.988;27.678;2023-05-23T08:16:42;987.6;;;29;22.6
62980;BME280;49075;53.988;27.678;2023-05-23T08:21:46;987.6;;;29.7;21.8
62980;BME280;49075;53.988;27.678;2023-05-23T08:26:42;987.6;;;28.3;23.3
62980;BME280;49075;53.988;27.678;2023-05-23T08:31:32;987.5;;;27;24.1
62980;BME280;49075;53.988;27.678;2023-05-23T08:36:46;987.6;;;26.1;25.2
62980;BME280;49075;53.988;27.678;2023-05-23T08:41:32;987.6;;;25.4;25.7
62980;BME280;49075;53.988;27.678;2023-05-23T08:46:54;987.5;;;25.1;26.3
62980;BME280;49075;53.988;27.678;2023-05-23T08:51:32;987.4;;;25;26.3
62980;BME280;49075;53.988;27.678;2023-05-23T08:56:38;987.3;;;26.2;25.1
62980;BME280;49075;53.988;27.678;2023-05-23T09:01:38;987.3;;;27.5;22.9
62980;BME280;49075;53.988;27.678;2023-05-23T09:06:42;987.2;;;27.3;22.5
62980;BME280;49075;53.988;27.678;2023-05-23T09:11:46;987.2;;;26.4;23
62980;BME280;49075;53.988;27.678;2023-05-23T09:16:45;987.3;;;25.8;23.3
62980;BME280;49075;53.988;27.678;2023-05-23T09:21:46;987.2;;;25;23.9
62980;BME280;49075;53.988;27.678;2023-05-23T09:26:32;987.2;;;24.3;24.9
62980;BME280;49075;53.988;27.678;2023-05-23T09:31:32;987.2;;;23.3;26.4
62980;BME280;49075;53.988;27.678;2023-05-23T09:36:39;987.2;;;23.1;26.5
62980;BME280;49075;53.988;27.678;2023-05-23T09:41:42;987.1;;;22.7;26.6
62980;BME280;49075;53.988;27.678;2023-05-23T09:46:46;987.1;;;22.7;25.9
62980;BME280;49075;53.988;27.678;2023-05-23T09:51:38;987.1;;;22.5;26.8
62980;BME280;49075;53.988;27.678;2023-05-23T09:56:32;987.1;;;21.8;28
62980;BME280;49075;53.988;27.678;2023-05-23T10:01:32;987.1;;;22;27.9
62980;BME280;49075;53.988;27.678;2023-05-23T10:06:43;987.1;;;21.9;27.8
62980;BME280;49075;53.988;27.678;2023-05-23T10:12:48;987.1;;;21.9;27.9
62980;BME280;49075;53.988;27.678;2023-05-23T10:16:34;987.1;;;22;27.8
62980;BME280;49075;53.988;27.678;2023-05-23T10:21:43;987.1;;;21.9;28.4
62980;BME280;49075;53.988;27.678;2023-05-23T10:26:32;987.1;;;21.7;28.8
62980;BME280;49075;53.988;27.678;2023-05-23T10:31:56;987.1;;;21.6;28.8
62980;BME280;49075;53.988;27.678;2023-05-23T10:37:01;987.1;;;21.4;29.8
62980;BME280;49075;53.988;27.678;2023-05-23T10:41:42;987;;;22.5;29.2
62980;BME280;49075;53.988;27.678;2023-05-23T10:47:04;987;;;23.8;27.9
62980;BME280;49075;53.988;27.678;2023-05-23T10:51:47;987;;;23.6;28
62980;BME280;49075;53.988;27.678;2023-05-23T10:56:44;987;;;24.6;27
62980;BME280;49075;53.988;27.678;2023-05-23T11:01:32;986.9;;;26.3;25.1
62980;BME280;49075;53.988;27.678;2023-05-23T11:07:08;986.9;;;27.2;23.6
62980;BME280;49075;53.988;27.678;2023-05-23T11:12:04;986.8;;;27.3;23.1
62980;BME280;49075;53.988;27.678;2023-05-23T11:16:39;986.8;;;27.5;22.5
62980;BME280;49075;53.988;27.678;2023-05-23T11:21:57;986.7;;;27.4;22.1
62980;BME280;49075;53.988;27.678;2023-05-23T11:26:54;986.7;;;26.9;22.3
62980;BME280;49075;53.988;27.678;2023-05-23T11:32:08;986.7;;;26;22.6
62980;BME280;49075;53.988;27.678;2023-05-23T11:36:42;986.7;;;25;23.7
62980;BME280;49075;53.988;27.678;2023-05-23T11:41:33;986.7;;;24.5;24
62980;BME280;49075;53.988;27.678;2023-05-23T11:47:01;986.7;;;23.9;24.6
62980;BME280;49075;53.988;27.678;2023-05-23T11:51:32;986.7;;;23.5;24.1
62980;BME280;49075;53.988;27.678;2023-05-23T11:56:46;986.7;;;23.2;23
62980;BME280;49075;53.988;27.678;2023-05-23T12:01:35;986.7;;;23.1;23.7
62980;BME280;49075;53.988;27.678;2023-05-23T12:06:32;986.6;;;23.3;23.8
62980;BME280;49075;53.988;27.678;2023-05-23T12:11:32;986.6;;;23.3;23.4
62980;BME280;49075;53.988;27.678;2023-05-23T12:16:32;986.6;;;23.2;23.3
62980;BME280;49075;53.988;27.678;2023-05-23T12:21:40;986.5;;;23.4;23.4
62980;BME280;49075;53.988;27.678;2023-05-23T12:26:32;986.5;;;23.6;23.2
62980;BME280;49075;53.988;27.678;2023-05-23T12:31:52;986.4;;;23.8;23.5
62980;BME280;49075;53.988;27.678;2023-05-23T12:36:53;986.4;;;23.8;23.4
62980;BME280;49075;53.988;27.678;2023-05-23T12:42:05;986.3;;;23.7;23.5
62980;BME280;49075;53.988;27.678;2023-05-23T12:46:32;986.3;;;24;23.4
62980;BME280;49075;53.988;27.678;2023-05-23T12:51:32;986.2;;;24.4;23
62980;BME280;49075;53.988;27.678;2023-05-23T12:56:40;986.2;;;24.6;22.4
62980;BME280;49075;53.988;27.678;2023-05-23T13:01:32;986.2;;;24.5;22.6
62980;BME280;49075;53.988;27.678;2023-05-23T13:06:52;986.2;;;24.5;22.6
62980;BME280;49075;53.988;27.678;2023-05-23T13:12:00;986.2;;;24.3;23.4
62980;BME280;49075;53.988;27.678;2023-05-23T13:16:49;986.1;;;23.9;23.6
62980;BME280;49075;53.988;27.678;2023-05-23T13:21:46;986.1;;;23.9;23.8
62980;BME280;49075;53.988;27.678;2023-05-23T13:26:32;986.1;;;23.7;24
62980;BME280;49075;53.988;27.678;2023-05-23T13:31:32;986.1;;;23.4;24.4
62980;BME280;49075;53.988;27.678;2023-05-23T13:36:46;986.1;;;23.7;24.2
62980;BME280;49075;53.988;27.678;2023-05-23T13:41:32;986;;;23.9;24
62980;BME280;49075;53.988;27.678;2023-05-23T13:46:38;986;;;23.9;24.2
62980;BME280;49075;53.988;27.678;2023-05-23T13:51:42;986;;;23.4;24.5
62980;BME280;49075;53.988;27.678;2023-05-23T13:56:32;986;;;23.3;24.9
62980;BME280;49075;53.988;27.678;2023-05-23T14:01:52;986;;;23.2;25.1
62980;BME280;49075;53.988;27.678;2023-05-23T14:06:32;986;;;23.4;25
62980;BME280;49075;53.988;27.678;2023-05-23T14:11:32;986;;;23.5;25
62980;BME280;49075;53.988;27.678;2023-05-23T14:16:48;986;;;23.4;25.8
62980;BME280;49075;53.988;27.678;2023-05-23T14:21:48;985.9;;;23.3;26
62980;BME280;49075;53.988;27.678;2023-05-23T14:26:46;985.9;;;23.3;26
62980;BME280;49075;53.988;27.678;2023-05-23T14:31:32;985.9;;;23.2;26
62980;BME280;49075;53.988;27.678;2023-05-23T14:37:06;985.9;;;23.5;25.7
62980;BME280;49075;53.988;27.678;2023-05-23T14:41:32;985.9;;;23.5;25.6
62980;BME280;49075;53.988;27.678;2023-05-23T14:46:44;985.9;;;23.3;25.8
62980;BME280;49075;53.988;27.678;2023-05-23T14:51:38;985.9;;;23.2;26.1
62980;BME280;49075;53.988;27.678;2023-05-23T14:56:44;985.9;;;23.1;26.2
62980;BME280;49075;53.988;27.678;2023-05-23T15:01:38;985.8;;;23.1;26.2
62980;BME280;49075;53.988;27.678;2023-05-23T15:06:44;985.8;;;23.2;26
62980;BME280;49075;53.988;27.678;2023-05-23T15:11:58;985.8;;;23.4;25.8
62980;BME280;49075;53.988;27.678;2023-05-23T15:16:46;985.7;;;23.5;25.6
62980;BME280;49075;53.988;27.678;2023-05-23T15:21:44;985.7;;;23.4;25.8
62980;BME280;49075;53.988;27.678;2023-05-23T15:26:54;985.7;;;23.3;25.9
62980;BME280;49075;53.988;27.678;2023-05-23T15:31:58;985.6;;;23.1;26.4
62980;BME280;49075;53.988;27.678;2023-05-23T15:36:44;985.6;;;22.6;27.2
62980;BME280;49075;53.988;27.678;2023-05-23T15:41:36;985.6;;;22.4;27.6
62980;BME280;49075;53.988;27.678;2023-05-23T15:46:32;985.6;;;22.4;27.7
62980;BME280;49075;53.988;27.678;2023-05-23T15:51:58;985.6;;;22.3;27.9
62980;BME280;49075;53.988;27.678;2023-05-23T15:56:32;985.5;;;22.1;28.4
62980;BME280;49075;53.988;27.678;2023-05-23T16:01:32;985.6;;;21.8;28.9
62980;BME280;49075;53.988;27.678;2023-05-23T16:06:32;985.5;;;21.6;29.1
62980;BME280;49075;53.988;27.678;2023-05-23T16:12:06;985.6;;;21.5;29.5
62980;BME280;49075;53.988;27.678;2023-05-23T16:16:38;985.5;;;21.5;29.2
62980;BME280;49075;53.988;27.678;2023-05-23T16:21:32;985.5;;;21.5;29.3
62980;BME280;49075;53.988;27.678;2023-05-23T16:26:30;985.5;;;21.4;29.4
62980;BME280;49075;53.988;27.678;2023-05-23T16:31:32;985.5;;;21.2;29.8
62980;BME280;49075;53.988;27.678;2023-05-23T16:36:44;985.5;;;21.1;29.9
62980;BME280;49075;53.988;27.678;2023-05-23T16:42:00;985.5;;;21.1;30
62980;BME280;49075;53.988;27.678;2023-05-23T16:46:56;985.5;;;20.9;30.3
62980;BME280;49075;53.988;27.678;2023-05-23T16:51:42;985.5;;;20.8;30.8
62980;BME280;49075;53.988;27.678;2023-05-23T16:56:44;985.5;;;20.6;31.1
62980;BME280;49075;53.988;27.678;2023-05-23T17:01:30;985.6;;;20.5;31.4
62980;BME280;49075;53.988;27.678;2023-05-23T17:06:30;985.6;;;20.4;31.8
62980;BME280;49075;53.988;27.678;2023-05-23T17:11:50;985.6;;;20.3;32.5
62980;BME280;49075;53.988;27.678;2023-05-23T17:16:30;985.6;;;20.2;32.4
62980;BME280;49075;53.988;27.678;2023-05-23T17:21:58;985.6;;;20.2;32.8
62980;BME280;49075;53.988;27.678;2023-05-23T17:26:32;985.6;;;20.4;32.4
62980;BME280;49075;53.988;27.678;2023-05-23T17:31:52;985.6;;;20.2;32.9
62980;BME280;49075;53.988;27.678;2023-05-23T17:36:50;985.7;;;20.1;33.2
62980;BME280;49075;53.988;27.678;2023-05-23T17:42:12;985.7;;;19.9;33.7
62980;BME280;49075;53.988;27.678;2023-05-23T17:46:32;985.7;;;19.8;33.9
62980;BME280;49075;53.988;27.678;2023-05-23T17:51:32;985.7;;;19.7;34.2
62980;BME280;49075;53.988;27.678;2023-05-23T17:56:46;985.6;;;19.6;34.3
62980;BME280;49075;53.988;27.678;2023-05-23T18:01:46;985.6;;;19.4;34.7
62980;BME280;49075;53.988;27.678;2023-05-23T18:06:44;985.7;;;19.3;34.9
62980;BME280;49075;53.988;27.678;2023-05-23T18:11:32;985.7;;;19.1;35.7
62980;BME280;49075;53.988;27.678;2023-05-23T18:16:44;985.8;;;18.9;35.9
62980;BME280;49075;53.988;27.678;2023-05-23T18:21:32;985.8;;;18.7;36.8
62980;BME280;49075;53.988;27.678;2023-05-23T18:26:32;985.8;;;18.4;37.1
62980;BME280;49075;53.988;27.678;2023-05-23T18:31:42;985.9;;;18.3;37.8
62980;BME280;49075;53.988;27.678;2023-05-23T18:36:30;985.9;;;18.1;38
62980;BME280;49075;53.988;27.678;2023-05-23T18:41:42;985.9;;;18;38.4
62980;BME280;49075;53.988;27.678;2023-05-23T18:46:50;986;;;17.8;39
62980;BME280;49075;53.988;27.678;2023-05-23T18:51:44;985.9;;;17.7;39.3
62980;BME280;49075;53.988;27.678;2023-05-23T18:56:54;986;;;17.5;39.5
62980;BME280;49075;53.988;27.678;2023-05-23T19:01:38;986;;;17.4;40
62980;BME280;49075;53.988;27.678;2023-05-23T19:06:58;986;;;17.2;40.3
62980;BME280;49075;53.988;27.678;2023-05-23T19:11:32;986;;;17.1;40.9
62980;BME280;49075;53.988;27.678;2023-05-23T19:16:38;986;;;17;40.9
62980;BME280;49075;53.988;27.678;2023-05-23T19:22:04;986.1;;;16.9;41.5
62980;BME280;49075;53.988;27.678;2023-05-23T19:26:50;986.1;;;16.7;41.6
62980;BME280;49075;53.988;27.678;2023-05-23T19:31:46;986.1;;;16.6;42.2
62980;BME280;49075;53.988;27.678;2023-05-23T19:36:39;986.1;;;16.5;42.2
62980;BME280;49075;53.988;27.678;2023-05-23T19:41:44;986.1;;;16.3;42.9
62980;BME280;49075;53.988;27.678;2023-05-23T19:46:32;986.2;;;16.2;42.8
62980;BME280;49075;53.988;27.678;2023-05-23T19:51:32;986.2;;;16.1;43.1
62980;BME280;49075;53.988;27.678;2023-05-23T19:56:56;986.2;;;16;43.1
62980;BME280;49075;53.988;27.678;2023-05-23T20:01:32;986.2;;;15.9;43.5
62980;BME280;49075;53.988;27.678;2023-05-23T20:06:50;986.2;;;15.8;43.6
62980;BME280;49075;53.988;27.678;2023-05-23T20:11:33;986.1;;;15.8;43.7
62980;BME280;49075;53.988;27.678;2023-05-23T20:16:58;986.1;;;15.7;43.8
62980;BME280;49075;53.988;27.678;2023-05-23T20:21:32;986.2;;;15.6;44.2
62980;BME280;49075;53.988;27.678;2023-05-23T20:26:46;986.2;;;15.5;44.2
62980;BME280;49075;53.988;27.678;2023-05-23T20:31:32;986.3;;;15.4;44.4
62980;BME280;49075;53.988;27.678;2023-05-23T20:36:32;986.3;;;15.4;44.3
62980;BME280;49075;53.988;27.678;2023-05-23T20:41:42;986.3;;;15.4;44.5
62980;BME280;49075;53.988;27.678;2023-05-23T20:46:46;986.3;;;15.4;44.4
62980;BME280;49075;53.988;27.678;2023-05-23T20:51:44;986.4;;;15.4;44.3
62980;BME280;49075;53.988;27.678;2023-05-23T20:56:32;986.4;;;15.4;44.5
62980;BME280;49075;53.988;27.678;2023-05-23T21:01:44;986.4;;;15.4;44.3
62980;BME280;49075;53.988;27.678;2023-05-23T21:06:52;986.5;;;15.3;44.7
62980;BME280;49075;53.988;27.678;2023-05-23T21:11:32;986.5;;;15.3;44.5
62980;BME280;49075;53.988;27.678;2023-05-23T21:16:58;986.5;;;15.3;44.8
62980;BME280;49075;53.988;27.678;2023-05-23T21:21:58;986.5;;;15.3;44.7
62980;BME280;49075;53.988;27.678;2023-05-23T21:26:44;986.5;;;15.2;45
62980;BME280;49075;53.988;27.678;2023-05-23T21:31:32;986.4;;;15.2;45
62980;BME280;49075;53.988;27.678;2023-05-23T21:36:32;986.4;;;15.1;45.3
62980;BME280;49075;53.988;27.678;2023-05-23T21:41:44;986.4;;;15.1;45.1
62980;BME280;49075;53.988;27.678;2023-05-23T21:46:32;986.4;;;15.1;45.4
62980;BME280;49075;53.988;27.678;2023-05-23T21:51:44;986.5;;;15.1;45.3
62980;BME280;49075;53.988;27.678;2023-05-23T21:56:46;986.5;;;15;45.8
62980;BME280;49075;53.988;27.678;2023-05-23T22:01:32;986.5;;;14.9;45.8
62980;BME280;49075;53.988;27.678;2023-05-23T22:06:56;986.6;;;14.8;46.2
62980;BME280;49075;53.988;27.678;2023-05-23T22:11:46;986.6;;;14.8;46
62980;BME280;49075;53.988;27.678;2023-05-23T22:16:32;986.5;;;14.8;46.4
62980;BME280;49075;53.988;27.678;2023-05-23T22:21:48;986.5;;;14.7;46.3
62980;BME280;49075;53.988;27.678;2023-05-23T22:26:50;986.5;;;14.7;46.7
62980;BME280;49075;53.988;27.678;2023-05-23T22:31:48;986.5;;;14.7;46.5
62980;BME280;49075;53.988;27.678;2023-05-23T22:36:32;986.5;;;14.6;46.9
62980;BME280;49075;53.988;27.678;2023-05-23T22:41:46;986.5;;;14.5;47
62980;BME280;49075;53.988;27.678;2023-05-23T22:46:32;986.5;;;14.5;47
62980;BME280;49075;53.988;27.678;2023-05-23T22:51:44;986.5;;;14.6;46.9
62980;BME280;49075;53.988;27.678;2023-05-23T22:56:44;986.5;;;14.6;47.1
62980;BME280;49075;53.988;27.678;2023-05-23T23:01:30;986.5;;;14.5;47.1
62980;BME280;49075;53.988;27.678;2023-05-23T23:06:30;986.5;;;14.4;47.6
62980;BME280;49075;53.988;27.678;2023-05-23T23:11:30;986.5;;;14.4;47.6
62980;BME280;49075;53.988;27.678;2023-05-23T23:16:56;986.5;;;14.2;48.2
62980;BME280;49075;53.988;27.678;2023-05-23T23:21:30;986.5;;;14.1;48.3
62980;BME280;49075;53.988;27.678;2023-05-23T23:26:34;986.5;;;14;48.7
62980;BME280;49075;53.988;27.678;2023-05-23T23:31:54;986.5;;;13.9;49.1
62980;BME280;49075;53.988;27.678;2023-05-23T23:36:28;986.5;;;13.8;49.1
62980;BME280;49075;53.988;27.678;2023-05-23T23:41:28;986.4;;;13.8;49.4
62980;BME280;49075;53.988;27.678;2023-05-23T23:46:52;986.4;;;13.8;49.3
62980;BME280;49075;53.988;27.678;2023-05-23T23:51:40;986.4;;;13.7;49.7
62980;BME280;49075;53.988;27.678;2023-05-23T23:56:28;986.4;;;13.7;49.8
